Pagina principale
METAR-TAF:

METAR-TAF

Aeroporti :

Aeroporto di Milano-Linate

Milano, Italia

latitudine: 45-26N, longitudine: 009-17E, altezza: 107 m

Osservazione

Il bollettino è stato emesso 29 minuti fa, alle 07:50 UTC
Vento 3 kt da sud
Temperature 2°C
Umidità 75%
Pressione 1019 hPa
Visibilità 10 km o più
nessuna nube inferiore a 1500 m e nessun cumulonembo

METAR: LIML 110750Z 19003KT CAVOK 02/M02 Q1019 NOSIG

Ora: 09:19 (08:19 UTC)

Previsione

Il bollettino è stato emesso 3 ore e 19 minuti fa, alle 05:00 UTC
Previsione valida dal 11 alle 06 UTC al 12 alle 06 UTC
Vento 5 kt da direzioni variabili
Visibilità 10 km o più
Nubi sparse ad un'altezza di 8000 ft
Temporaneamente
dal 12 alle 00 UTC al 12 alle 06 UTC
Visibilità: 4000 m
pioggia

TAF: LIML 110500Z 1106/1206 VRB05KT 9999 SCT080 TEMPO 1200/1206 4000 RA

Osservazioni e previsioni meteorologiche di più di 4000 aeroporti (messaggi METAR e TAF).

Le stazioni disponibili sono rappresentate dai dischi gialli e rossi sulla carta.

Puntare il mouse per vedere il nome della stazione.

Clicca sopra per visualizzare le osservazioni e previsioni meteorologiche.

Per cambiare la mappa : fare clic sui pulsanti verdi con una croce nera per ingrandire, il pulsante verde con un trattino per diminuire, o sulla freccia verde per le mappe adiacenti.


METAR-TAF: